Decoded Metar for KDCM ( in _UNIDENTIFIED) (IATA:) | Meteo·Mobile Aviation Weather
aviador You're here:

KDCM Decoded Metar

in _UNIDENTIFIED
Report Time2018-08-22 05:35:00
UTC Time2018-08-22 05:37:44
Flight Rules vfr VFR
WindCalm
Visibility9999 m
Phenomena:N/A
Clouds:Broken 090 Hf
Ceiling9,000 ft
Temp22°C (ISA +8)
Dew Point22°C (100% RH)
QNH1015 hPa
Density Alt1,906 ft
Elevation656 ft
Report Wrong Elevation
Raw Report
KDCM 220535Z AUTO 00000KT 7SM BKN090 22/22 A2998 RMK AO2=

Extra information for KDCM:More info

Metar Taf Metar & Taf Last 4 Metars F.Rules Stats Wind Profile Meteogram Temp Stats Metar ALERT Operation Metar Decoded Social comments